Terminal Aerodrome Forecast
Issued by NWS

Home | Current Version | Previous Version | Text Only | Print | Product List | Glossary On
Versions: 1 2 3 4 5 6 7 8 9 10 11 12 13 14 15 16 17 18 19 20 21 22 23 24 25 26 27 28 29 30 31 32 33 34 35
000
FTUS41 KBOX 012321
TAFFMH
TAF
KFMH 012321Z 0200/0224 33004KT P6SM BKN100
     FM020500 02006KT P6SM OVC030
     FM020700 04006KT 6SM -SN OVC015
     FM020800 07006KT 3SM -SN OVC010
     FM021000 09009KT 1SM -SN OVC008
     FM021400 11016G24KT 1/2SM SNPLRA OVC003
     FM021600 13013G23KT 2SM RA OVC003
     FM021800 17008KT 5SM -RA OVC003=

USA.gov is the U.S. government's official web portal to all federal, state and local government web resources and services.